Time;durP1;ratioP1;P1;durP2;ratioP2;P2;SDS_P1;SDS_P2;PMS_P1;PMS_P2;Temp;Humidity;BMP_temperature;BMP_pressure;BME280_temperature;BME280_humidity;BME280_pressure;Samples;Min_cycle;Max_cycle;Signal;HPM_P1;HPM_P2
2022/12/05 00:00:10;;;;;;;9.18;5.43;;;;;;;6.13;65.80;95869.91;4967462;28;20027;-74
2022/12/05 00:02:35;;;;;;;10.43;6.57;;;;;;;6.04;66.31;95877.69;4967338;28;20037;-76
2022/12/05 00:05:01;;;;;;;9.85;6.22;;;;;;;6.03;66.64;95874.19;4968919;28;20019;-75
2022/12/05 00:07:27;;;;;;;9.38;5.75;;;;;;;6.05;66.48;95880.03;4968919;28;20038;-75
2022/12/05 00:09:52;;;;;;;9.98;5.85;;;;;;;6.07;66.54;95874.16;4983156;28;20090;-73
2022/12/05 00:12:18;;;;;;;10.35;6.63;;;;;;;6.01;66.72;95873.75;4951129;28;20434;-75
2022/12/05 00:14:43;;;;;;;12.02;5.93;;;;;;;6.07;66.39;95874.94;4968118;28;20031;-75
2022/12/05 00:17:09;;;;;;;10.65;5.45;;;;;;;6.04;66.56;95875.72;4983385;28;20089;-75
2022/12/05 00:19:34;;;;;;;10.73;6.18;;;;;;;6.03;66.45;95882.38;4951024;28;20034;-75
2022/12/05 00:21:59;;;;;;;8.50;5.55;;;;;;;6.05;66.40;95876.50;4951141;28;20050;-74
2022/12/05 00:24:25;;;;;;;11.23;6.60;;;;;;;6.04;66.47;95881.19;4999501;28;20023;-74
2022/12/05 00:26:50;;;;;;;20.70;11.43;;;;;;;6.01;66.66;95887.41;4968354;28;20041;-74
2022/12/05 00:29:16;;;;;;;11.23;6.30;;;;;;;6.00;66.60;95890.53;4968203;28;20405;-74
2022/12/05 00:31:41;;;;;;;15.10;7.80;;;;;;;5.93;66.96;95888.56;4965431;28;20026;-74
2022/12/05 00:34:07;;;;;;;12.80;7.07;;;;;;;5.97;66.91;95897.56;4967804;28;20090;-73
2022/12/05 00:36:33;;;;;;;11.32;7.18;;;;;;;6.05;66.75;95890.16;4967864;28;20058;-75
2022/12/05 00:39:00;;;;;;;11.10;6.88;;;;;;;6.00;66.75;95891.31;4966783;28;20058;-76
2022/12/05 00:41:26;;;;;;;11.15;6.05;;;;;;;6.05;66.48;95893.66;4934727;28;20026;-74
2022/12/05 00:43:52;;;;;;;14.60;7.05;;;;;;;5.96;66.79;95887.78;4982800;28;20027;-73
2022/12/05 00:46:20;;;;;;;10.07;6.03;;;;;;;5.95;67.05;95888.94;4966481;28;20027;-73
2022/12/05 00:48:45;;;;;;;12.02;6.30;;;;;;;5.89;67.26;95890.44;4982231;28;20034;-73
2022/12/05 00:51:12;;;;;;;10.30;6.50;;;;;;;5.94;66.99;95883.88;4982336;28;20046;-75
2022/12/05 00:53:37;;;;;;;12.38;6.88;;;;;;;5.98;66.89;95890.91;4967464;28;20038;-74
2022/12/05 00:56:04;;;;;;;9.38;5.72;;;;;;;5.91;67.27;95881.88;4966530;28;20026;-74
2022/12/05 00:58:30;;;;;;;10.35;5.65;;;;;;;5.86;67.27;95872.13;4950283;28;20023;-74
2022/12/05 01:00:56;;;;;;;7.97;5.03;;;;;;;5.75;67.67;95874.81;4982595;28;20034;-74
2022/12/05 01:03:21;;;;;;;11.05;6.03;;;;;;;5.71;67.80;95868.53;4998711;28;20030;-74
2022/12/05 01:05:46;;;;;;;10.30;6.10;;;;;;;5.66;68.14;95868.91;4950001;28;20027;-74
2022/12/05 01:08:12;;;;;;;10.70;6.15;;;;;;;5.59;68.51;95866.16;4982061;28;20035;-74
2022/12/05 01:10:37;;;;;;;12.60;5.97;;;;;;;5.44;68.58;95861.75;4967312;28;20026;-74
2022/12/05 01:13:03;;;;;;;14.00;7.00;;;;;;;5.38;69.24;95861.34;4950404;28;20042;-74
2022/12/05 01:15:28;;;;;;;12.68;7.82;;;;;;;5.35;69.05;95861.34;4965575;28;20034;-75
2022/12/05 01:17:54;;;;;;;12.05;5.72;;;;;;;5.39;69.44;95865.66;4966592;28;20078;-76
2022/12/05 01:20:19;;;;;;;13.65;7.30;;;;;;;5.41;69.04;95855.13;4967739;28;20031;-76
2022/12/05 01:22:44;;;;;;;13.73;7.75;;;;;;;5.41;68.96;95854.38;4967657;28;20035;-75
2022/12/05 01:25:10;;;;;;;11.55;7.07;;;;;;;5.39;69.00;95846.56;4934070;28;20033;-75
2022/12/05 01:27:35;;;;;;;12.23;6.53;;;;;;;5.39;69.26;95849.28;4965746;28;20027;-74
2022/12/05 01:30:01;;;;;;;12.73;6.72;;;;;;;5.41;69.20;95844.22;4949995;28;20418;-75
2022/12/05 01:32:26;;;;;;;13.90;6.95;;;;;;;5.37;69.54;95851.59;4981176;28;20077;-74
2022/12/05 01:34:51;;;;;;;12.88;7.22;;;;;;;5.35;69.42;95850.44;4933777;28;20035;-75
2022/12/05 01:37:17;;;;;;;13.55;6.85;;;;;;;5.44;69.33;95846.19;4949376;28;20027;-75
2022/12/05 01:39:42;;;;;;;13.20;7.65;;;;;;;5.54;69.13;95845.47;4967325;28;20098;-74
2022/12/05 01:42:10;;;;;;;12.52;7.53;;;;;;;5.60;68.79;95848.59;4949921;28;20031;-75
2022/12/05 01:44:35;;;;;;;14.55;7.50;;;;;;;5.74;68.29;95843.22;4949571;28;20027;-75
2022/12/05 01:47:00;;;;;;;15.57;6.95;;;;;;;5.83;67.80;95843.66;4967086;28;20026;-74
2022/12/05 01:49:29;;;;;;;14.38;7.07;;;;;;;5.79;67.87;95836.59;4949399;28;20026;-75
2022/12/05 01:51:57;;;;;;;14.98;7.40;;;;;;;5.78;67.85;95840.50;4965281;28;20050;-75
2022/12/05 01:54:23;;;;;;;14.38;7.70;;;;;;;5.80;67.89;95843.66;4964811;28;20035;-75
2022/12/05 01:56:51;;;;;;;14.43;7.65;;;;;;;5.75;68.03;95844.00;4966153;28;20073;-75
2022/12/05 01:59:17;;;;;;;14.65;8.10;;;;;;;5.80;67.97;95844.44;4981757;28;20314;-74
2022/12/05 02:01:42;;;;;;;14.40;7.75;;;;;;;5.89;67.55;95840.56;4965762;28;20086;-75
2022/12/05 02:04:08;;;;;;;15.02;7.55;;;;;;;5.94;67.27;95840.22;4982072;28;20151;-75
2022/12/05 02:06:33;;;;;;;12.38;6.85;;;;;;;5.84;67.72;95841.69;4965173;28;20121;-75
2022/12/05 02:08:58;;;;;;;13.90;7.32;;;;;;;5.68;67.95;95843.97;4933763;28;20027;-75
2022/12/05 02:11:25;;;;;;;12.85;7.15;;;;;;;5.62;68.39;95848.22;4981174;28;20026;-75
2022/12/05 02:14:03;;;;;;;15.30;8.40;;;;;;;5.61;68.89;95858.34;4965581;28;20030;-74
2022/12/05 02:16:57;;;;;;;12.85;7.18;;;;;;;5.70;68.38;95855.28;4964689;28;20423;-75
2022/12/05 02:19:49;;;;;;;12.02;7.55;;;;;;;5.67;68.36;95848.63;4978396;28;20541;-74
2022/12/05 02:22:30;;;;;;;14.07;7.35;;;;;;;5.72;68.50;95847.50;4981174;28;20029;-75
2022/12/05 02:25:10;;;;;;;7.57;4.15;;;;;;;5.76;68.11;95845.56;4966878;28;20027;-75
2022/12/05 02:27:54;;;;;;;13.23;7.35;;;;;;;5.77;68.18;95842.44;4981285;28;20038;-75
2022/12/05 02:30:21;;;;;;;13.55;7.57;;;;;;;5.74;68.31;95835.06;4981577;28;20113;-75
2022/12/05 02:32:49;;;;;;;14.95;7.35;;;;;;;5.68;68.53;95833.84;4964541;28;20027;-75
2022/12/05 02:35:22;;;;;;;11.85;7.43;;;;;;;5.71;68.31;95832.28;4981469;28;20420;-75
2022/12/05 02:38:26;;;;;;;12.43;7.05;;;;;;;5.74;68.37;95839.72;4981211;28;20142;-75
2022/12/05 02:41:03;;;;;;;14.45;7.13;;;;;;;5.64;68.54;95832.28;4981508;28;20382;-75
2022/12/05 02:43:56;;;;;;;11.27;6.28;;;;;;;5.60;69.07;95838.47;4981567;28;20023;-75
2022/12/05 02:46:22;;;;;;;11.18;6.00;;;;;;;5.74;68.42;95823.34;4962541;28;20039;-75
2022/12/05 02:48:49;;;;;;;10.60;6.75;;;;;;;5.74;68.15;95828.81;4965174;28;20034;-75
2022/12/05 02:51:16;;;;;;;13.55;7.47;;;;;;;5.72;68.58;95828.41;4948785;28;20465;-74
2022/12/05 02:53:42;;;;;;;11.98;6.68;;;;;;;5.69;68.57;95829.19;4965144;28;20054;-75
2022/12/05 02:56:07;;;;;;;13.63;6.63;;;;;;;5.71;68.55;95826.84;4984927;28;20466;-75
2022/12/05 02:58:35;;;;;;;12.40;6.70;;;;;;;5.70;68.50;95817.88;4968176;28;20031;-75
2022/12/05 03:01:00;;;;;;;10.48;5.70;;;;;;;5.61;68.87;95820.16;4984785;28;20506;-75
2022/12/05 03:03:26;;;;;;;15.07;7.70;;;;;;;5.50;69.09;95820.09;4984546;28;20090;-75
2022/12/05 03:06:04;;;;;;;12.55;7.25;;;;;;;5.63;68.82;95826.03;4968560;28;20027;-76
2022/12/05 03:08:47;;;;;;;12.82;6.93;;;;;;;5.64;68.83;95826.81;4968149;28;20100;-75
2022/12/05 03:11:13;;;;;;;12.13;7.47;;;;;;;5.62;68.97;95823.66;4967914;28;20046;-73
2022/12/05 03:13:43;;;;;;;13.00;7.35;;;;;;;5.72;68.83;95826.44;4952043;28;20528;-75
2022/12/05 03:16:16;;;;;;;15.30;8.30;;;;;;;5.81;68.77;95824.16;4952013;28;20031;-75
2022/12/05 03:18:52;;;;;;;11.02;6.43;;;;;;;5.91;67.91;95813.66;4968049;28;20038;-74
2022/12/05 03:21:36;;;;;;;12.95;6.45;;;;;;;5.98;67.72;95824.63;4967856;28;20027;-74
2022/12/05 03:24:06;;;;;;;15.23;6.90;;;;;;;5.92;67.83;95820.72;4984195;28;20155;-75
2022/12/05 03:26:39;;;;;;;13.07;7.60;;;;;;;5.94;67.82;95832.81;4968152;28;20031;-76
2022/12/05 03:29:21;;;;;;;13.02;7.28;;;;;;;5.98;67.80;95835.56;4951915;28;20035;-75
2022/12/05 03:31:56;;;;;;;14.77;7.55;;;;;;;6.08;67.38;95832.84;4969003;28;20042;-73
2022/12/05 03:34:33;;;;;;;11.55;6.38;;;;;;;6.13;67.16;95839.88;4969146;28;20035;-75
2022/12/05 03:36:59;;;;;;;13.85;7.60;;;;;;;6.22;66.62;95829.38;4969025;28;20034;-75
2022/12/05 03:39:26;;;;;;;13.45;7.25;;;;;;;6.20;66.50;95833.66;4967943;28;20038;-75
2022/12/05 03:42:12;;;;;;;12.77;7.50;;;;;;;6.22;66.39;95832.09;4967136;28;20173;-75
2022/12/05 03:44:51;;;;;;;12.00;6.10;;;;;;;6.21;66.33;95827.03;4984024;28;20030;-75
2022/12/05 03:47:21;;;;;;;12.82;7.65;;;;;;;6.13;66.77;95826.22;4983640;28;20027;-74
2022/12/05 03:49:49;;;;;;;12.60;6.85;;;;;;;6.12;66.80;95825.44;4967181;28;20404;-75
2022/12/05 03:52:17;;;;;;;11.43;6.93;;;;;;;6.00;67.08;95827.75;4967516;28;20027;-75
2022/12/05 03:54:49;;;;;;;12.70;7.05;;;;;;;6.07;66.83;95828.53;4966990;28;20031;-75
2022/12/05 03:57:16;;;;;;;14.55;7.47;;;;;;;6.11;66.98;95832.06;4983301;28;20066;-76
2022/12/05 04:00:00;;;;;;;13.68;8.07;;;;;;;6.18;66.62;95830.53;4983744;28;20090;-75
2022/12/05 04:02:34;;;;;;;13.63;7.78;;;;;;;6.07;66.67;95831.28;4967794;28;20034;-75
2022/12/05 04:05:08;;;;;;;12.98;7.35;;;;;;;6.11;66.99;95829.34;4966787;28;20027;-75
2022/12/05 04:07:33;;;;;;;;;;;;;;;6.06;66.97;95829.72;4967130;28;20105;-75
2022/12/05 04:10:00;;;;;;;11.52;6.40;;;;;;;6.00;67.44;95819.56;4983758;28;20065;-75
2022/12/05 04:12:28;;;;;;;16.25;7.35;;;;;;;5.91;67.38;95814.47;4966593;28;20034;-74
2022/12/05 04:14:56;;;;;;;13.93;7.25;;;;;;;5.91;67.17;95811.75;4968723;28;20082;-75
2022/12/05 04:17:58;;;;;;;11.95;6.07;;;;;;;5.86;67.17;95812.88;4966951;28;20536;-75
2022/12/05 04:23:16;;;;;;;14.15;6.60;;;;;;;5.82;67.58;95805.84;4980629;28;20155;-74
2022/12/05 04:26:02;;;;;;;13.52;6.88;;;;;;;5.75;67.86;95809.31;4950551;28;20031;-75
2022/12/05 04:28:50;;;;;;;13.02;6.70;;;;;;;5.80;67.71;95803.50;4934890;28;20464;-75
2022/12/05 04:31:17;;;;;;;12.20;7.10;;;;;;;5.81;67.57;95813.25;4966453;28;20057;-74
2022/12/05 04:33:45;;;;;;;12.93;6.68;;;;;;;5.91;67.29;95816.38;4982615;28;20039;-74
2022/12/05 04:36:12;;;;;;;12.25;7.15;;;;;;;5.95;67.08;95817.97;4950389;28;20058;-74
2022/12/05 04:38:42;;;;;;;12.07;6.55;;;;;;;5.95;67.19;95809.78;4982498;28;20031;-75
2022/12/05 04:41:12;;;;;;;14.77;7.15;;;;;;;5.81;67.28;95813.25;4982744;28;20126;-75
2022/12/05 04:43:38;;;;;;;13.15;7.20;;;;;;;5.76;67.85;95821.00;4966441;28;20031;-75
2022/12/05 04:46:05;;;;;;;13.25;7.47;;;;;;;5.91;67.42;95828.13;4950448;28;20261;-75
2022/12/05 04:48:31;;;;;;;12.88;6.90;;;;;;;5.97;67.20;95826.59;4966325;28;20093;-75
2022/12/05 04:50:56;;;;;;;10.10;6.07;;;;;;;5.92;67.38;95832.41;4949808;28;20047;-75
2022/12/05 04:53:26;;;;;;;12.07;7.45;;;;;;;5.98;67.32;95825.41;4950465;28;20030;-75
2022/12/05 04:55:52;;;;;;;14.95;7.75;;;;;;;6.08;66.77;95829.34;4966066;28;20041;-75
2022/12/05 04:58:22;;;;;;;14.52;7.18;;;;;;;6.10;66.82;95830.50;4967891;28;20030;-75
2022/12/05 05:01:10;;;;;;;14.27;7.05;;;;;;;6.18;66.64;95830.53;4965710;28;20027;-75
2022/12/05 05:03:52;;;;;;;14.23;7.75;;;;;;;6.22;66.56;95842.25;4967532;28;20033;-75
2022/12/05 05:06:18;;;;;;;13.85;8.13;;;;;;;6.31;65.91;95845.41;4965371;28;20026;-75
2022/12/05 05:08:48;;;;;;;15.73;7.72;;;;;;;6.36;66.00;95842.25;4949659;28;20026;-75
2022/12/05 05:11:23;;;;;;;14.60;7.55;;;;;;;6.39;66.06;95847.75;4965935;28;20023;-74
2022/12/05 05:13:48;;;;;;;17.52;8.05;;;;;;;6.45;65.54;95850.09;4982247;28;20092;-74
2022/12/05 05:16:19;;;;;;;13.75;6.68;;;;;;;6.48;65.26;95849.31;4967139;28;20466;-74
2022/12/05 05:18:45;;;;;;;15.02;6.53;;;;;;;6.43;65.39;95850.50;4966047;28;20030;-74
2022/12/05 05:21:19;;;;;;;13.32;7.72;;;;;;;6.45;65.40;95856.34;4949719;28;20034;-74
2022/12/05 05:23:44;;;;;;;;;;;;;;;6.42;65.37;95861.78;4982737;28;20098;-74
2022/12/05 05:26:09;;;;;;;12.00;6.35;;;;;;;6.32;65.67;95866.84;4981428;28;19914;-74
2022/12/05 05:28:35;;;;;;;16.27;7.90;;;;;;;6.21;65.96;95857.84;4949833;28;20035;-74
2022/12/05 05:31:04;;;;;;;12.90;7.55;;;;;;;6.18;66.19;95849.63;4966856;28;20074;-74
2022/12/05 05:33:30;;;;;;;16.75;8.38;;;;;;;6.15;66.62;95858.63;4967082;28;20019;-74
2022/12/05 05:35:55;;;;;;;14.50;6.82;;;;;;;6.17;66.65;95861.72;4982052;28;20038;-74
2022/12/05 05:38:20;;;;;;;16.67;8.68;;;;;;;6.11;66.73;95859.38;4981605;28;20026;-73
2022/12/05 05:40:46;;;;;;;17.02;8.40;;;;;;;6.06;66.96;95859.75;4967433;28;20070;-74
2022/12/05 05:43:11;;;;;;;13.40;7.40;;;;;;;6.14;66.80;95857.84;4949312;28;20090;-74
2022/12/05 05:45:37;;;;;;;15.43;8.15;;;;;;;6.22;66.96;95866.81;4965978;28;20019;-73
2022/12/05 05:48:02;;;;;;;14.65;8.45;;;;;;;6.24;66.69;95861.75;4981603;28;20046;-74
2022/12/05 05:50:28;;;;;;;15.18;8.25;;;;;;;6.32;66.53;95863.34;4966859;28;20051;-74
2022/12/05 05:52:53;;;;;;;17.02;9.10;;;;;;;6.42;66.13;95873.50;4967208;28;20031;-74
2022/12/05 05:55:19;;;;;;;17.55;8.50;;;;;;;6.50;66.11;95875.09;4933275;28;20078;-74
2022/12/05 05:57:44;;;;;;;17.83;9.57;;;;;;;6.62;65.14;95880.16;4965753;28;20086;-74
2022/12/05 06:00:10;;;;;;;15.00;8.43;;;;;;;6.60;65.35;95882.53;4981196;28;20041;-73
2022/12/05 06:02:36;;;;;;;16.05;9.05;;;;;;;6.64;65.07;95882.50;4965602;28;20042;-74
2022/12/05 06:05:01;;;;;;;16.00;8.88;;;;;;;6.71;64.85;95888.00;4933188;28;20111;-74
2022/12/05 06:07:27;;;;;;;17.42;9.07;;;;;;;6.75;65.06;95879.78;4949662;28;20568;-74
2022/12/05 06:09:52;;;;;;;18.33;9.45;;;;;;;6.75;64.92;95880.56;4981696;28;20096;-74
2022/12/05 06:12:18;;;;;;;16.85;8.88;;;;;;;6.79;64.55;95881.38;4981578;28;20027;-75
2022/12/05 06:14:43;;;;;;;15.30;9.55;;;;;;;6.84;64.42;95880.22;4981688;28;20035;-75
2022/12/05 06:17:08;;;;;;;14.15;8.63;;;;;;;6.93;64.07;95886.03;4966969;28;20031;-74
2022/12/05 06:19:34;;;;;;;16.92;8.85;;;;;;;6.97;63.84;95877.84;4949324;28;20111;-74
2022/12/05 06:21:59;;;;;;;15.65;8.80;;;;;;;6.99;63.78;95873.56;4966586;28;20027;-75
2022/12/05 06:24:25;;;;;;;16.00;8.70;;;;;;;7.03;63.52;95884.50;4949446;28;20035;-75
2022/12/05 06:26:50;;;;;;;15.90;9.13;;;;;;;7.01;63.58;95881.38;4966385;28;20086;-74
2022/12/05 06:29:16;;;;;;;16.88;9.38;;;;;;;6.99;63.59;95880.97;4966448;28;20061;-75
2022/12/05 06:31:41;;;;;;;18.08;9.50;;;;;;;7.02;63.28;95874.75;4985332;28;20026;-76
2022/12/05 06:34:07;;;;;;;18.13;9.00;;;;;;;7.00;63.51;95883.34;4952786;28;20038;-76
2022/12/05 06:36:32;;;;;;;14.40;8.05;;;;;;;6.98;63.41;95880.19;4952939;28;20537;-76
2022/12/05 06:38:58;;;;;;;12.85;8.18;;;;;;;6.95;63.63;95888.41;4969761;28;20038;-75
2022/12/05 06:41:23;;;;;;;18.02;9.55;;;;;;;6.93;63.55;95886.81;4985912;28;20054;-75
2022/12/05 06:43:52;;;;;;;22.60;9.68;;;;;;;6.89;63.90;95888.81;4968751;28;20038;-75
2022/12/05 06:46:18;;;;;;;18.00;10.05;;;;;;;6.91;63.95;95882.94;4969194;28;20031;-75
2022/12/05 06:48:43;;;;;;;14.93;9.52;;;;;;;6.87;64.00;95885.66;4970049;28;20023;-75
2022/12/05 06:51:10;;;;;;;13.80;8.60;;;;;;;6.95;63.89;95889.19;4968717;28;20416;-75
2022/12/05 06:53:35;;;;;;;15.43;9.52;;;;;;;6.92;64.09;95887.22;4952539;28;20090;-75
2022/12/05 06:56:03;;;;;;;17.75;9.05;;;;;;;6.96;63.85;95889.97;4984826;28;20480;-75
2022/12/05 06:58:29;;;;;;;14.82;8.50;;;;;;;7.01;63.99;95895.06;4968297;28;20027;-74
2022/12/05 07:03:40;;;;;;;18.60;8.52;;;;;;;7.03;63.67;95890.75;4996486;28;20081;-75
2022/12/05 07:06:06;;;;;;;16.80;9.30;;;;;;;7.11;63.22;95891.50;4984417;28;20023;-74
2022/12/05 07:08:31;;;;;;;15.77;9.02;;;;;;;7.07;63.61;95898.97;4969641;28;20042;-74
2022/12/05 07:10:57;;;;;;;16.23;8.70;;;;;;;7.10;63.57;95892.69;4968598;28;20114;-74
2022/12/05 07:13:22;;;;;;;12.20;7.20;;;;;;;7.14;62.92;95894.25;4969364;28;20039;-75
2022/12/05 07:15:48;;;;;;;15.07;8.38;;;;;;;7.11;62.93;95896.97;4984768;28;20034;-75
2022/12/05 07:18:14;;;;;;;12.65;6.82;;;;;;;7.13;62.62;95898.16;4968215;28;20098;-75
2022/12/05 07:20:39;;;;;;;18.25;7.65;;;;;;;6.94;63.12;95893.09;4968236;28;20038;-75
2022/12/05 07:23:05;;;;;;;14.52;7.60;;;;;;;6.84;63.61;95893.88;4969568;28;20055;-75
2022/12/05 07:25:30;;;;;;;13.10;7.65;;;;;;;6.80;64.00;95895.81;4984211;28;20026;-75
2022/12/05 07:27:56;;;;;;;13.18;7.97;;;;;;;6.75;63.92;95893.47;4967992;28;20042;-74
2022/12/05 07:30:21;;;;;;;13.23;7.50;;;;;;;6.75;64.09;95902.44;4984095;28;20031;-74
2022/12/05 07:32:46;;;;;;;12.00;7.40;;;;;;;6.76;63.71;95898.53;4935593;28;20019;-75
2022/12/05 07:35:12;;;;;;;17.23;8.43;;;;;;;6.68;64.28;95902.44;4951881;28;20038;-75
2022/12/05 07:37:37;;;;;;;16.98;8.05;;;;;;;6.65;64.48;95904.00;5000649;28;20027;-75
2022/12/05 07:40:03;;;;;;;13.57;7.40;;;;;;;6.57;64.88;95913.34;4967896;28;20421;-75
2022/12/05 07:42:29;;;;;;;13.60;7.88;;;;;;;6.53;64.96;95909.81;4984274;28;20486;-74
2022/12/05 07:44:54;;;;;;;16.55;8.45;;;;;;;6.58;64.83;95914.91;4968849;28;20023;-77
2022/12/05 07:47:20;;;;;;;17.35;8.30;;;;;;;6.62;64.82;95912.19;5000249;28;20034;-76
2022/12/05 07:49:45;;;;;;;11.98;6.90;;;;;;;6.52;65.17;95916.44;4968922;28;20485;-76
2022/12/05 07:52:11;;;;;;;15.65;8.93;;;;;;;6.50;65.11;95905.13;4935654;28;20415;-76
2022/12/05 07:54:36;;;;;;;15.02;8.43;;;;;;;6.51;65.08;95912.16;4967581;28;20027;-76
2022/12/05 07:57:01;;;;;;;15.80;8.25;;;;;;;6.49;65.26;95917.22;4967654;28;20038;-76
2022/12/05 07:59:27;;;;;;;15.20;8.75;;;;;;;6.47;65.49;95903.16;4951745;28;20031;-75
2022/12/05 08:01:53;;;;;;;11.57;7.68;;;;;;;6.52;65.56;95902.00;4950796;28;20026;-73
2022/12/05 08:04:18;;;;;;;19.77;9.88;;;;;;;6.62;65.38;95896.56;4951407;28;20042;-74
2022/12/05 08:06:44;;;;;;;14.52;8.73;;;;;;;6.66;65.29;95899.31;4951070;28;20037;-74
2022/12/05 08:09:09;;;;;;;14.43;8.90;;;;;;;6.67;64.98;95902.81;4983708;28;20395;-75
2022/12/05 08:11:35;;;;;;;14.75;8.25;;;;;;;6.69;64.84;95914.13;4983194;28;20090;-75
2022/12/05 08:14:01;;;;;;;15.27;8.18;;;;;;;6.65;65.12;95908.66;4983379;28;20031;-75
2022/12/05 08:16:28;;;;;;;12.63;6.80;;;;;;;6.60;65.28;95917.25;4983334;28;20031;-74
2022/12/05 08:18:56;;;;;;;13.43;8.05;;;;;;;6.52;65.44;95921.13;4950689;28;20026;-75
2022/12/05 08:21:24;;;;;;;14.32;7.60;;;;;;;6.44;65.62;95923.06;4967192;28;20027;-74
2022/12/05 08:23:49;;;;;;;15.02;8.55;;;;;;;6.44;65.69;95917.59;4982597;28;20027;-74
2022/12/05 08:26:20;;;;;;;13.68;8.23;;;;;;;6.51;65.59;95919.56;4983278;28;20037;-74
2022/12/05 08:28:45;;;;;;;14.68;8.98;;;;;;;6.59;65.66;95915.66;4968234;28;20115;-76
2022/12/05 08:31:15;;;;;;;15.38;8.95;;;;;;;6.63;65.42;95917.25;4967141;28;20045;-76
2022/12/05 08:33:40;;;;;;;11.82;6.68;;;;;;;6.71;65.01;95909.88;4966771;28;20039;-76
2022/12/05 08:36:07;;;;;;;15.93;9.35;;;;;;;6.66;64.92;95902.03;4982902;28;20030;-74
2022/12/05 08:38:33;;;;;;;12.15;7.40;;;;;;;6.75;64.97;95915.31;4982915;28;20126;-76
2022/12/05 08:41:03;;;;;;;12.65;7.30;;;;;;;6.83;64.52;95909.50;4982551;28;20022;-75
2022/12/05 08:43:28;;;;;;;13.68;8.63;;;;;;;6.83;64.71;95912.22;4966714;28;20018;-77
2022/12/05 08:45:54;;;;;;;13.35;8.25;;;;;;;6.89;64.73;95894.25;4966283;28;20113;-75
2022/12/05 08:48:19;;;;;;;12.45;7.50;;;;;;;7.01;64.38;95914.97;4982923;28;20042;-73
2022/12/05 08:50:45;;;;;;;14.43;7.80;;;;;;;7.05;64.13;95898.56;4950142;28;20385;-74
2022/12/05 08:53:10;;;;;;;11.73;7.05;;;;;;;7.22;63.75;95910.66;4949806;28;20027;-75
2022/12/05 08:55:36;;;;;;;12.48;8.10;;;;;;;7.26;63.41;95908.72;4968073;28;20054;-75
2022/12/05 08:58:01;;;;;;;12.65;7.80;;;;;;;7.28;63.44;95912.59;4949275;28;20022;-76
2022/12/05 09:00:27;;;;;;;12.02;7.72;;;;;;;7.35;63.10;95909.09;4950334;28;20164;-74
2022/12/05 09:02:52;;;;;;;12.52;6.55;;;;;;;7.42;62.40;95898.94;4949891;28;20026;-76
2022/12/05 09:05:18;;;;;;;14.98;8.73;;;;;;;7.43;62.48;95897.75;4982651;28;20504;-77
2022/12/05 09:07:43;;;;;;;16.35;8.18;;;;;;;7.44;62.38;95910.25;4966085;28;20038;-74
2022/12/05 09:10:09;;;;;;;14.68;8.00;;;;;;;7.51;62.21;95911.41;4966155;28;20030;-74
2022/12/05 09:12:37;;;;;;;16.98;9.15;;;;;;;7.56;62.23;95911.03;4968307;28;20023;-73
2022/12/05 09:15:05;;;;;;;13.15;8.38;;;;;;;7.61;61.83;95914.13;4950474;28;20529;-75
2022/12/05 09:17:30;;;;;;;12.48;8.10;;;;;;;7.62;61.91;95907.47;4950881;28;20026;-77
2022/12/05 09:19:56;;;;;;;13.55;8.27;;;;;;;7.68;61.73;95905.94;4982196;28;20026;-73
2022/12/05 09:22:21;;;;;;;12.52;7.93;;;;;;;7.73;61.56;95896.50;4967669;28;20030;-75
2022/12/05 09:24:47;;;;;;;11.23;7.05;;;;;;;7.78;61.64;95898.06;4982247;28;20037;-74
2022/12/05 09:27:13;;;;;;;12.63;7.60;;;;;;;7.82;61.36;95890.66;4965985;28;20474;-75
2022/12/05 09:29:38;;;;;;;13.52;7.75;;;;;;;7.84;61.10;95888.28;4998581;28;20074;-73
2022/12/05 09:32:04;;;;;;;11.88;7.63;;;;;;;7.93;60.85;95885.91;4981759;28;20030;-75
2022/12/05 09:34:29;;;;;;;13.52;7.70;;;;;;;7.99;60.88;95889.81;4949703;28;20093;-75
2022/12/05 09:36:56;;;;;;;10.05;6.82;;;;;;;8.04;60.68;95886.66;4949453;28;20030;-73
2022/12/05 09:39:22;;;;;;;10.55;6.43;;;;;;;8.10;60.30;95885.06;4982260;28;20023;-76
2022/12/05 09:42:08;;;;;;;11.25;6.22;;;;;;;8.20;59.71;95877.97;4982133;28;20034;-76
2022/12/05 09:45:04;;;;;;;9.60;6.82;;;;;;;8.22;59.80;95879.13;4967427;28;20055;-77
2022/12/05 09:47:35;;;;;;;10.30;7.22;;;;;;;8.25;59.72;95883.81;4967455;28;20022;-77
2022/12/05 09:50:16;;;;;;;10.05;6.82;;;;;;;8.30;59.45;95871.66;4981149;28;20082;-77
2022/12/05 09:52:50;;;;;;;10.35;7.10;;;;;;;8.34;59.41;95871.66;4965636;28;20098;-77
2022/12/05 09:55:18;;;;;;;14.35;7.75;;;;;;;8.40;58.97;95864.59;4966868;28;20043;-76
2022/12/05 09:57:47;;;;;;;16.75;9.93;;;;;;;8.40;59.27;95868.13;4967519;28;20050;-77
2022/12/05 10:00:13;;;;;;;14.52;8.50;;;;;;;8.42;59.12;95857.53;4965349;28;20497;-76
2022/12/05 10:02:53;;;;;;;13.02;7.72;;;;;;;8.43;59.10;95872.00;4965744;28;20403;-77
2022/12/05 10:05:42;;;;;;;12.63;6.85;;;;;;;8.46;58.98;95858.28;4971354;28;20030;-76
2022/12/05 10:08:31;;;;;;;10.10;6.97;;;;;;;8.47;58.84;95856.34;4966004;28;20479;-76
2022/12/05 10:11:06;;;;;;;14.10;7.32;;;;;;;8.46;58.88;95860.25;4970013;28;20031;-76
2022/12/05 10:13:37;;;;;;;10.38;6.88;;;;;;;8.49;58.69;95863.00;4953661;28;20509;-76
2022/12/05 10:16:06;;;;;;;11.52;6.28;;;;;;;8.51;58.40;95855.13;4970194;28;20069;-76
2022/12/05 10:18:37;;;;;;;9.82;6.05;;;;;;;8.49;58.78;95852.03;4985560;28;20031;-76
2022/12/05 10:21:11;;;;;;;12.70;7.53;;;;;;;8.56;58.46;95855.91;4953381;28;20037;-76
2022/12/05 10:23:59;;;;;;;11.95;7.32;;;;;;;8.54;58.45;95850.81;4953184;28;20027;-76
2022/12/05 10:26:36;;;;;;;10.93;7.15;;;;;;;8.58;58.68;95848.81;4970326;28;20109;-76
2022/12/05 10:29:01;;;;;;;13.27;7.45;;;;;;;8.63;58.24;95853.09;4968731;28;20026;-75
2022/12/05 10:31:29;;;;;;;11.27;7.45;;;;;;;8.63;58.34;95853.09;4970355;28;20608;-75
2022/12/05 10:34:16;;;;;;;10.88;7.65;;;;;;;8.61;57.95;95844.53;5001079;28;20425;-77
2022/12/05 10:36:51;;;;;;;17.05;8.20;;;;;;;8.60;58.34;95848.41;4982379;28;20053;-76
2022/12/05 10:39:18;;;;;;;11.77;7.38;;;;;;;8.65;58.19;95843.28;4968390;28;20027;-78
2022/12/05 10:41:43;;;;;;;8.93;6.15;;;;;;;8.69;57.99;95837.78;4985555;28;20025;-76
2022/12/05 10:44:08;;;;;;;11.60;6.68;;;;;;;8.74;57.84;95834.63;4969404;28;20023;-76
2022/12/05 10:46:34;;;;;;;12.32;7.18;;;;;;;8.72;57.94;95824.06;4969169;28;20023;-76
2022/12/05 10:49:00;;;;;;;13.38;7.47;;;;;;;8.80;57.69;95826.75;4985078;28;20023;-76
2022/12/05 10:51:26;;;;;;;12.25;7.25;;;;;;;8.81;57.47;95831.03;4984802;28;20047;-76
2022/12/05 10:53:52;;;;;;;11.60;6.78;;;;;;;8.75;57.63;95827.97;4985004;28;20086;-76
2022/12/05 10:56:39;;;;;;;12.68;7.13;;;;;;;8.71;57.84;95836.19;4984682;28;20038;-76
2022/12/05 10:59:05;;;;;;;12.25;7.32;;;;;;;8.67;57.99;95831.94;4969966;28;20030;-76
2022/12/05 11:01:31;;;;;;;11.57;7.75;;;;;;;8.69;58.21;95827.59;5001216;28;20031;-75
2022/12/05 11:03:58;;;;;;;11.07;7.47;;;;;;;8.67;58.44;95829.97;4968417;28;20124;-75
2022/12/05 11:06:28;;;;;;;14.07;7.65;;;;;;;8.69;58.34;95826.81;4952308;28;20056;-72
2022/12/05 11:09:13;;;;;;;12.50;8.27;;;;;;;8.73;58.04;95817.41;5001161;28;20031;-72
2022/12/05 11:11:38;;;;;;;13.20;7.03;;;;;;;8.68;58.37;95820.56;4949772;28;20081;-73
2022/12/05 11:14:35;;;;;;;11.55;6.78;;;;;;;8.68;58.43;95817.06;4984603;28;20460;-72
2022/12/05 11:17:01;;;;;;;12.10;6.90;;;;;;;8.71;58.33;95814.25;4966838;28;20055;-73
2022/12/05 11:19:27;;;;;;;12.15;7.43;;;;;;;8.72;58.10;95810.38;4950867;28;20034;-73
2022/12/05 11:21:53;;;;;;;10.60;7.70;;;;;;;8.72;58.22;95804.88;4951025;28;20180;-74
2022/12/05 11:24:32;;;;;;;14.25;7.20;;;;;;;8.76;58.34;95804.84;4934703;28;20106;-72
2022/12/05 11:27:16;;;;;;;10.48;7.10;;;;;;;8.76;58.43;95805.63;4951121;28;20035;-72
2022/12/05 11:29:42;;;;;;;10.95;7.45;;;;;;;8.77;58.05;95798.16;4966803;28;20105;-74
2022/12/05 11:32:17;;;;;;;11.23;7.30;;;;;;;8.77;57.95;95793.50;4934819;28;20091;-72
2022/12/05 11:34:55;;;;;;;11.88;8.52;;;;;;;8.76;57.99;95786.44;4950445;28;20604;-74
2022/12/05 11:37:32;;;;;;;12.10;7.28;;;;;;;8.67;58.34;95782.59;4950457;28;20078;-73
2022/12/05 11:39:59;;;;;;;12.45;7.22;;;;;;;8.47;58.99;95790.56;4951034;28;20049;-74
2022/12/05 11:42:46;;;;;;;11.77;8.45;;;;;;;8.34;59.29;95783.97;4950192;28;20421;-73
2022/12/05 11:45:24;;;;;;;11.43;7.25;;;;;;;8.21;59.70;95773.50;4950822;28;20074;-74
2022/12/05 11:47:59;;;;;;;12.63;7.55;;;;;;;8.17;59.93;95777.44;4951309;28;20038;-75